BAW99 EGLL-CYYZ
Flight info
| Callsign | BAW99 |
|---|---|
| Flight time | N/A |
| Altitude | 26000 |
| Route | CPT Q63 MALBY SL2 C/KESUP/N0720F260F450 SL2 C/LESLU/M200F450F600 DCT 5100N01000W 5230N01500W 5400N02000W 5600N03000W 5700N04000W 5700N05000W PRAWN DCT LOMTA DCT TEALS DCT 5315N07230W/N0512F360 DCT 5055N07504W DUXIT IMEBA6 DCT CYYZ |
| Aircraft | CONC/H-SDFHIRY/C |
Departure
| Time | 2026-05-06 21:58 |
|---|---|
| Airport | London Heathrow Airport (EGLL) |
Arrival
| Time | N/A |
|---|---|
| Airport | Toronto Pearson International Airport (CYYZ) |
| Time | Latitude | Longitude | Altitude | Speed | Heading |
|---|---|---|---|---|---|
| 2026-05-06 21:02 | 51.46074 | -0.44809 | 95 ft | 0 kts | 132° |
| 2026-05-06 21:42 | 51.46082 | -0.44823 | 94 ft | 4 kts | 136° |
| 2026-05-06 21:42 | 51.46103 | -0.44851 | 94 ft | 4 kts | 139° |
| 2026-05-06 21:43 | 51.46113 | -0.44871 | 94 ft | 4 kts | 116° |
| 2026-05-06 21:43 | 51.46117 | -0.44905 | 94 ft | 4 kts | 88° |
| 2026-05-06 21:43 | 51.46109 | -0.44942 | 94 ft | 4 kts | 51° |
| 2026-05-06 21:43 | 51.46093 | -0.44967 | 94 ft | 1 kts | 41° |
| 2026-05-06 21:44 | 51.46090 | -0.44971 | 94 ft | 0 kts | 41° |
| 2026-05-06 21:47 | 51.46091 | -0.44970 | 94 ft | 1 kts | 41° |
| 2026-05-06 21:47 | 51.46104 | -0.44952 | 94 ft | 4 kts | 41° |
| 2026-05-06 21:48 | 51.46130 | -0.44915 | 94 ft | 6 kts | 42° |
| 2026-05-06 21:48 | 51.46169 | -0.44859 | 94 ft | 10 kts | 42° |
| 2026-05-06 21:48 | 51.46223 | -0.44782 | 94 ft | 10 kts | 41° |
| 2026-05-06 21:48 | 51.46274 | -0.44710 | 94 ft | 7 kts | 36° |
| 2026-05-06 21:49 | 51.46312 | -0.44715 | 94 ft | 6 kts | 322° |
| 2026-05-06 21:49 | 51.46326 | -0.44781 | 94 ft | 7 kts | 271° |
| 2026-05-06 21:49 | 51.46325 | -0.44882 | 94 ft | 11 kts | 269° |
| 2026-05-06 21:49 | 51.46325 | -0.45018 | 94 ft | 14 kts | 270° |
| 2026-05-06 21:50 | 51.46325 | -0.45189 | 94 ft | 17 kts | 270° |
| 2026-05-06 21:50 | 51.46324 | -0.45396 | 94 ft | 20 kts | 270° |
| 2026-05-06 21:50 | 51.46324 | -0.45571 | 94 ft | 11 kts | 270° |
| 2026-05-06 21:50 | 51.46327 | -0.45698 | 94 ft | 13 kts | 272° |
| 2026-05-06 21:51 | 51.46326 | -0.45843 | 94 ft | 14 kts | 270° |
| 2026-05-06 21:51 | 51.46326 | -0.46016 | 94 ft | 17 kts | 270° |
| 2026-05-06 21:51 | 51.46325 | -0.46223 | 94 ft | 20 kts | 270° |
| 2026-05-06 21:51 | 51.46325 | -0.46438 | 94 ft | 19 kts | 270° |
| 2026-05-06 21:52 | 51.46324 | -0.46670 | 94 ft | 22 kts | 270° |
| 2026-05-06 21:52 | 51.46323 | -0.46881 | 94 ft | 19 kts | 270° |
| 2026-05-06 21:52 | 51.46322 | -0.47035 | 94 ft | 9 kts | 270° |
| 2026-05-06 21:52 | 51.46322 | -0.47155 | 94 ft | 12 kts | 270° |
| 2026-05-06 21:53 | 51.46322 | -0.47305 | 94 ft | 11 kts | 270° |
| 2026-05-06 21:53 | 51.46336 | -0.47413 | 94 ft | 10 kts | 285° |
| 2026-05-06 21:53 | 51.46340 | -0.47516 | 94 ft | 10 kts | 268° |
| 2026-05-06 21:53 | 51.46336 | -0.47634 | 94 ft | 10 kts | 255° |
| 2026-05-06 21:54 | 51.46308 | -0.47718 | 94 ft | 10 kts | 240° |
| 2026-05-06 21:54 | 51.46269 | -0.47827 | 94 ft | 12 kts | 240° |
| 2026-05-06 21:54 | 51.46251 | -0.47922 | 94 ft | 9 kts | 270° |
| 2026-05-06 21:54 | 51.46251 | -0.48042 | 94 ft | 12 kts | 270° |
| 2026-05-06 21:55 | 51.46251 | -0.48198 | 94 ft | 16 kts | 270° |
| 2026-05-06 21:55 | 51.46250 | -0.48389 | 94 ft | 19 kts | 270° |
| 2026-05-06 21:55 | 51.46250 | -0.48550 | 94 ft | 12 kts | 272° |
| 2026-05-06 21:55 | 51.46273 | -0.48660 | 94 ft | 4 kts | 304° |
| 2026-05-06 21:56 | 51.46298 | -0.48705 | 94 ft | 7 kts | 322° |
| 2026-05-06 21:56 | 51.46351 | -0.48745 | 94 ft | 10 kts | 345° |
| 2026-05-06 21:56 | 51.46426 | -0.48753 | 94 ft | 11 kts | 359° |
| 2026-05-06 21:56 | 51.46475 | -0.48720 | 94 ft | 6 kts | 49° |
| 2026-05-06 21:57 | 51.46479 | -0.48692 | 94 ft | 0 kts | 90° |
| 2026-05-06 21:57 | 51.46480 | -0.48603 | 94 ft | 35 kts | 89° |
| 2026-05-06 21:58 | 51.46481 | -0.47757 | 94 ft | 115 kts | 89° |
| 2026-05-06 21:58 | 51.46489 | -0.46064 | 94 ft | 187 kts | 90° |
| 2026-05-06 21:58 | 51.46503 | -0.43654 | 169 ft | 236 kts | 89° |
| 2026-05-06 21:58 | 51.46498 | -0.40924 | 789 ft | 252 kts | 89° |
| 2026-05-06 21:59 | 51.46504 | -0.38149 | 1610 ft | 241 kts | 88° |
| 2026-05-06 21:59 | 51.46348 | -0.35525 | 1947 ft | 237 kts | 107° |
| 2026-05-06 21:59 | 51.45631 | -0.33188 | 2083 ft | 238 kts | 130° |
| 2026-05-06 21:59 | 51.44379 | -0.31445 | 2196 ft | 241 kts | 153° |
| 2026-05-06 22:00 | 51.42774 | -0.30718 | 2344 ft | 244 kts | 186° |
| 2026-05-06 22:00 | 51.41178 | -0.31556 | 2534 ft | 246 kts | 221° |
| 2026-05-06 22:00 | 51.40146 | -0.33711 | 2702 ft | 248 kts | 254° |
| 2026-05-06 22:00 | 51.39860 | -0.36450 | 2827 ft | 253 kts | 273° |
| 2026-05-06 22:01 | 51.39928 | -0.39307 | 3001 ft | 260 kts | 274° |
| 2026-05-06 22:01 | 51.40079 | -0.42193 | 3343 ft | 260 kts | 282° |
| 2026-05-06 22:01 | 51.40408 | -0.45055 | 3722 ft | 261 kts | 282° |
| 2026-05-06 22:01 | 51.40729 | -0.47894 | 4099 ft | 264 kts | 281° |
| 2026-05-06 22:02 | 51.41038 | -0.50812 | 4498 ft | 267 kts | 280° |
| 2026-05-06 22:02 | 51.41342 | -0.53751 | 5032 ft | 266 kts | 280° |
| 2026-05-06 22:02 | 51.41647 | -0.56674 | 5610 ft | 267 kts | 281° |
| 2026-05-06 22:02 | 51.41974 | -0.59657 | 6229 ft | 276 kts | 281° |
| 2026-05-06 22:03 | 51.42332 | -0.62740 | 7013 ft | 289 kts | 282° |
| 2026-05-06 22:03 | 51.42723 | -0.65986 | 8049 ft | 305 kts | 282° |
| 2026-05-06 22:03 | 51.43139 | -0.69405 | 9244 ft | 320 kts | 282° |
| 2026-05-06 22:03 | 51.43520 | -0.72965 | 10552 ft | 327 kts | 277° |
| 2026-05-06 22:04 | 51.43762 | -0.76702 | 11487 ft | 351 kts | 275° |
| 2026-05-06 22:04 | 51.43956 | -0.80753 | 11919 ft | 376 kts | 274° |
| 2026-05-06 22:04 | 51.44124 | -0.85019 | 12438 ft | 390 kts | 276° |
| 2026-05-06 22:04 | 51.44532 | -0.89372 | 13058 ft | 398 kts | 282° |
| 2026-05-06 22:05 | 51.45101 | -0.93753 | 13675 ft | 405 kts | 283° |
| 2026-05-06 22:05 | 51.45721 | -0.98210 | 14313 ft | 412 kts | 283° |
| 2026-05-06 22:05 | 51.46351 | -1.02659 | 14959 ft | 417 kts | 283° |
| 2026-05-06 22:05 | 51.46998 | -1.07223 | 15640 ft | 422 kts | 283° |
| 2026-05-06 22:06 | 51.47646 | -1.11840 | 16344 ft | 426 kts | 283° |
| 2026-05-06 22:06 | 51.48290 | -1.16512 | 17061 ft | 430 kts | 282° |
| 2026-05-06 22:06 | 51.48932 | -1.21220 | 17789 ft | 434 kts | 282° |
| 2026-05-06 22:06 | 51.49575 | -1.25973 | 18460 ft | 439 kts | 282° |
| 2026-05-06 22:07 | 51.50214 | -1.30783 | 19126 ft | 443 kts | 282° |
| 2026-05-06 22:07 | 51.50844 | -1.35650 | 19766 ft | 447 kts | 281° |
| 2026-05-06 22:07 | 51.51449 | -1.40560 | 20392 ft | 450 kts | 281° |
| 2026-05-06 22:07 | 51.52044 | -1.45519 | 21008 ft | 455 kts | 281° |
| 2026-05-06 22:08 | 51.52643 | -1.50534 | 21653 ft | 459 kts | 281° |
| 2026-05-06 22:08 | 51.53256 | -1.55598 | 22329 ft | 464 kts | 281° |
| 2026-05-06 22:08 | 51.53885 | -1.60638 | 23041 ft | 468 kts | 281° |
| 2026-05-06 22:08 | 51.54537 | -1.65787 | 23806 ft | 472 kts | 281° |
| 2026-05-06 22:09 | 51.55179 | -1.70996 | 24586 ft | 477 kts | 281° |
| 2026-05-06 22:09 | 51.55796 | -1.76257 | 25406 ft | 482 kts | 280° |
| 2026-05-06 22:09 | 51.56393 | -1.81625 | 25930 ft | 493 kts | 280° |
| 2026-05-06 22:09 | 51.56998 | -1.87160 | 26055 ft | 512 kts | 279° |
| 2026-05-06 22:10 | 51.57624 | -1.92882 | 26055 ft | 527 kts | 280° |
| 2026-05-06 22:10 | 51.58284 | -1.98769 | 26047 ft | 541 kts | 280° |
| 2026-05-06 22:10 | 51.58846 | -2.04762 | 26036 ft | 543 kts | 272° |
| 2026-05-06 22:10 | 51.58627 | -2.10797 | 26039 ft | 543 kts | 260° |
| 2026-05-06 22:11 | 51.57849 | -2.16752 | 26043 ft | 544 kts | 257° |
| 2026-05-06 22:11 | 51.56915 | -2.22641 | 26034 ft | 544 kts | 256° |
| 2026-05-06 22:11 | 51.55921 | -2.28514 | 26030 ft | 544 kts | 255° |
| 2026-05-06 22:11 | 51.54902 | -2.34385 | 26028 ft | 545 kts | 255° |
| 2026-05-06 22:12 | 51.53881 | -2.40179 | 26027 ft | 545 kts | 255° |
| 2026-05-06 22:12 | 51.52845 | -2.46039 | 26027 ft | 545 kts | 255° |
| 2026-05-06 22:12 | 51.51812 | -2.51897 | 26027 ft | 545 kts | 255° |
| 2026-05-06 22:12 | 51.50790 | -2.57751 | 26026 ft | 545 kts | 255° |
| 2026-05-06 22:13 | 51.49787 | -2.63616 | 26026 ft | 545 kts | 256° |
| 2026-05-06 22:13 | 51.48806 | -2.69489 | 26026 ft | 545 kts | 256° |
| 2026-05-06 22:13 | 51.47840 | -2.75375 | 26026 ft | 545 kts | 256° |
| 2026-05-06 22:13 | 51.46879 | -2.81267 | 26026 ft | 545 kts | 256° |
| 2026-05-06 22:14 | 51.45920 | -2.87143 | 26025 ft | 545 kts | 256° |
| 2026-05-06 22:14 | 51.44955 | -2.92944 | 26026 ft | 545 kts | 256° |
| 2026-05-06 22:14 | 51.43963 | -2.98816 | 26025 ft | 546 kts | 255° |
| 2026-05-06 22:14 | 51.42962 | -3.04699 | 26025 ft | 546 kts | 255° |
| 2026-05-06 22:15 | 51.41959 | -3.10578 | 26025 ft | 546 kts | 255° |
| 2026-05-06 22:15 | 51.40956 | -3.16452 | 26025 ft | 546 kts | 255° |
| 2026-05-06 22:15 | 51.39955 | -3.22323 | 26025 ft | 546 kts | 256° |
| 2026-05-06 22:15 | 51.38954 | -3.28204 | 26025 ft | 546 kts | 255° |
| 2026-05-06 22:16 | 51.37952 | -3.34071 | 26026 ft | 546 kts | 255° |
| 2026-05-06 22:16 | 51.36955 | -3.39867 | 26026 ft | 546 kts | 255° |
| 2026-05-06 22:16 | 51.35936 | -3.45737 | 26026 ft | 546 kts | 255° |
| 2026-05-06 22:16 | 51.34918 | -3.51586 | 26026 ft | 547 kts | 255° |
| 2026-05-06 22:17 | 51.33898 | -3.57473 | 26151 ft | 552 kts | 255° |
| 2026-05-06 22:17 | 51.33086 | -3.63477 | 26589 ft | 553 kts | 264° |
| 2026-05-06 22:17 | 51.32751 | -3.69628 | 27147 ft | 556 kts | 268° |
| 2026-05-06 22:17 | 51.32596 | -3.75829 | 27608 ft | 559 kts | 269° |
| 2026-05-06 22:18 | 51.32560 | -3.82067 | 28023 ft | 561 kts | 271° |
| 2026-05-06 22:18 | 51.32603 | -3.88335 | 28253 ft | 565 kts | 271° |
| 2026-05-06 22:18 | 51.32688 | -3.94646 | 28491 ft | 566 kts | 272° |
| 2026-05-06 22:18 | 51.32784 | -4.00874 | 28706 ft | 567 kts | 272° |
| 2026-05-06 22:19 | 51.32886 | -4.07217 | 29052 ft | 572 kts | 272° |
| 2026-05-06 22:19 | 51.32983 | -4.13585 | 29426 ft | 574 kts | 272° |
| 2026-05-06 22:19 | 51.33062 | -4.19980 | 29782 ft | 577 kts | 271° |
| 2026-05-06 22:19 | 51.33114 | -4.26406 | 30121 ft | 579 kts | 271° |
| 2026-05-06 22:20 | 51.33147 | -4.32880 | 30432 ft | 582 kts | 271° |
| 2026-05-06 22:20 | 51.33170 | -4.39369 | 30754 ft | 585 kts | 271° |
| 2026-05-06 22:20 | 51.33190 | -4.45909 | 31091 ft | 588 kts | 271° |
| 2026-05-06 22:20 | 51.33210 | -4.52382 | 31428 ft | 591 kts | 271° |
| 2026-05-06 22:21 | 51.33234 | -4.58977 | 31755 ft | 595 kts | 271° |
| 2026-05-06 22:21 | 51.33264 | -4.65613 | 32121 ft | 600 kts | 271° |
| 2026-05-06 22:21 | 51.33296 | -4.72324 | 32438 ft | 607 kts | 271° |
| 2026-05-06 22:22 | 51.33330 | -4.85309 | 33282 ft | 628 kts | 271° |
| 2026-05-06 22:22 | 51.33302 | -4.92355 | 33777 ft | 641 kts | 268° |
| 2026-05-06 22:22 | 51.33030 | -4.99565 | 34302 ft | 656 kts | 266° |
| 2026-05-06 22:22 | 51.32591 | -5.06918 | 34796 ft | 671 kts | 264° |
| 2026-05-06 22:23 | 51.32032 | -5.14409 | 35262 ft | 686 kts | 263° |
| 2026-05-06 22:23 | 51.31365 | -5.21947 | 35708 ft | 700 kts | 262° |
| 2026-05-06 22:23 | 51.30611 | -5.29715 | 36125 ft | 714 kts | 262° |
| 2026-05-06 22:23 | 51.29797 | -5.37627 | 36541 ft | 728 kts | 261° |
| 2026-05-06 22:24 | 51.28944 | -5.45677 | 36950 ft | 741 kts | 261° |
| 2026-05-06 22:24 | 51.28063 | -5.53854 | 37356 ft | 754 kts | 261° |
| 2026-05-06 22:24 | 51.27159 | -5.62182 | 37774 ft | 768 kts | 261° |
| 2026-05-06 22:24 | 51.26236 | -5.70661 | 38203 ft | 783 kts | 261° |
| 2026-05-06 22:25 | 51.25297 | -5.79320 | 38640 ft | 798 kts | 261° |
| 2026-05-06 22:25 | 51.24356 | -5.88129 | 39080 ft | 813 kts | 261° |
| 2026-05-06 22:25 | 51.23409 | -5.97117 | 39512 ft | 829 kts | 261° |
| 2026-05-06 22:25 | 51.22448 | -6.06301 | 39937 ft | 845 kts | 261° |
| 2026-05-06 22:26 | 51.21470 | -6.15628 | 40347 ft | 861 kts | 261° |
| 2026-05-06 22:26 | 51.20457 | -6.25128 | 40724 ft | 877 kts | 261° |
| 2026-05-06 22:26 | 51.19424 | -6.34674 | 41096 ft | 892 kts | 261° |
| 2026-05-06 22:26 | 51.18343 | -6.44501 | 41456 ft | 907 kts | 260° |
| 2026-05-06 22:27 | 51.17229 | -6.54494 | 41804 ft | 922 kts | 260° |
| 2026-05-06 22:27 | 51.16090 | -6.64614 | 42141 ft | 936 kts | 260° |
| 2026-05-06 22:27 | 51.14920 | -6.74903 | 42456 ft | 950 kts | 260° |
| 2026-05-06 22:27 | 51.13727 | -6.85324 | 42757 ft | 963 kts | 260° |
| 2026-05-06 22:28 | 51.12508 | -6.95899 | 43062 ft | 975 kts | 260° |
| 2026-05-06 22:28 | 51.11271 | -7.06569 | 43317 ft | 982 kts | 260° |
| 2026-05-06 22:28 | 51.10022 | -7.17282 | 43564 ft | 987 kts | 260° |
| 2026-05-06 22:28 | 51.08759 | -7.28029 | 43786 ft | 992 kts | 259° |
| 2026-05-06 22:29 | 51.07489 | -7.38842 | 43993 ft | 997 kts | 260° |
| 2026-05-06 22:29 | 51.06318 | -7.49726 | 44186 ft | 1001 kts | 261° |
| 2026-05-06 22:29 | 51.05275 | -7.60694 | 44368 ft | 1005 kts | 262° |
| 2026-05-06 22:29 | 51.04362 | -7.71748 | 44540 ft | 1008 kts | 263° |
| 2026-05-06 22:30 | 51.03592 | -7.82708 | 44706 ft | 1012 kts | 264° |
| 2026-05-06 22:30 | 51.02936 | -7.93867 | 44866 ft | 1015 kts | 265° |
| 2026-05-06 22:30 | 51.02377 | -8.05094 | 45019 ft | 1018 kts | 266° |
| 2026-05-06 22:30 | 51.01898 | -8.16342 | 45164 ft | 1021 kts | 266° |
| 2026-05-06 22:31 | 51.01486 | -8.27648 | 45304 ft | 1025 kts | 267° |
| 2026-05-06 22:31 | 51.01130 | -8.38978 | 45438 ft | 1027 kts | 268° |
| 2026-05-06 22:31 | 51.00826 | -8.50193 | 45566 ft | 1030 kts | 268° |
| 2026-05-06 22:31 | 51.00568 | -8.61570 | 45694 ft | 1033 kts | 268° |
| 2026-05-06 22:32 | 51.00357 | -8.72982 | 45820 ft | 1036 kts | 269° |
| 2026-05-06 22:32 | 51.00221 | -8.84469 | 45943 ft | 1039 kts | 269° |
| 2026-05-06 22:32 | 51.00158 | -8.95955 | 46063 ft | 1041 kts | 270° |
| 2026-05-06 22:32 | 51.00148 | -9.07451 | 46180 ft | 1044 kts | 270° |
| 2026-05-06 22:33 | 51.00171 | -9.18995 | 46297 ft | 1047 kts | 271° |
| 2026-05-06 22:33 | 51.00371 | -9.30561 | 46375 ft | 1049 kts | 274° |
| 2026-05-06 22:33 | 51.01671 | -9.53651 | 46506 ft | 1052 kts | 278° |
| 2026-05-06 22:34 | 51.04171 | -9.76608 | 46609 ft | 1054 kts | 283° |
| 2026-05-06 22:34 | 51.07820 | -9.99032 | 46688 ft | 1055 kts | 287° |
| 2026-05-06 22:35 | 51.12579 | -10.21151 | 46767 ft | 1057 kts | 291° |
| 2026-05-06 22:35 | 51.17953 | -10.43015 | 46960 ft | 1060 kts | 292° |
| 2026-05-06 22:36 | 51.23638 | -10.64762 | 47156 ft | 1064 kts | 293° |
| 2026-05-06 22:36 | 51.26571 | -10.75631 | 47257 ft | 1067 kts | 294° |
| 2026-05-06 22:36 | 51.29550 | -10.86492 | 47367 ft | 1068 kts | 294° |
| 2026-05-06 22:37 | 51.32575 | -10.97346 | 47472 ft | 1071 kts | 294° |
| 2026-05-06 22:37 | 51.35647 | -11.08211 | 47578 ft | 1073 kts | 295° |
| 2026-05-06 22:37 | 51.38767 | -11.19087 | 47690 ft | 1075 kts | 295° |
| 2026-05-06 22:37 | 51.41932 | -11.29935 | 47807 ft | 1078 kts | 295° |
| 2026-05-06 22:38 | 51.45137 | -11.40653 | 47924 ft | 1081 kts | 296° |
| 2026-05-06 22:38 | 51.48501 | -11.51639 | 48044 ft | 1084 kts | 296° |
| 2026-05-06 22:38 | 51.51867 | -11.62460 | 48169 ft | 1086 kts | 297° |
| 2026-05-06 22:38 | 51.55242 | -11.73201 | 48288 ft | 1088 kts | 297° |
| 2026-05-06 22:39 | 51.58671 | -11.84064 | 48408 ft | 1091 kts | 297° |
| 2026-05-06 22:39 | 51.62113 | -11.94949 | 48531 ft | 1093 kts | 297° |
| 2026-05-06 22:39 | 51.65567 | -12.05894 | 48655 ft | 1096 kts | 297° |
| 2026-05-06 22:39 | 51.68998 | -12.16858 | 48787 ft | 1099 kts | 296° |
| 2026-05-06 22:40 | 51.72412 | -12.27920 | 48918 ft | 1102 kts | 296° |
| 2026-05-06 22:40 | 51.75797 | -12.39030 | 49050 ft | 1105 kts | 296° |
| 2026-05-06 22:40 | 51.79166 | -12.50223 | 49174 ft | 1108 kts | 296° |
| 2026-05-06 22:40 | 51.82470 | -12.61307 | 49287 ft | 1110 kts | 296° |
| 2026-05-06 22:41 | 51.89131 | -12.83920 | 49482 ft | 1116 kts | 295° |
| 2026-05-06 22:41 | 51.92455 | -12.95308 | 49570 ft | 1119 kts | 295° |
| 2026-05-06 22:42 | 51.99095 | -13.18202 | 49722 ft | 1122 kts | 295° |
| 2026-05-06 22:42 | 52.05740 | -13.41249 | 49839 ft | 1127 kts | 295° |
| 2026-05-06 22:43 | 52.12338 | -13.64234 | 49944 ft | 1129 kts | 295° |
| 2026-05-06 22:43 | 52.18963 | -13.87461 | 50033 ft | 1131 kts | 295° |
| 2026-05-06 22:44 | 52.25545 | -14.10818 | 50106 ft | 1134 kts | 295° |
| 2026-05-06 22:44 | 52.32090 | -14.34290 | 50171 ft | 1136 kts | 295° |
| 2026-05-06 22:45 | 52.38664 | -14.57818 | 50225 ft | 1137 kts | 295° |
| 2026-05-06 22:45 | 52.45284 | -14.81220 | 50288 ft | 1138 kts | 295° |
| 2026-05-06 22:46 | 52.52059 | -15.04686 | 50347 ft | 1137 kts | 296° |
| 2026-05-06 22:46 | 52.59007 | -15.28074 | 50395 ft | 1137 kts | 297° |
| 2026-05-06 22:47 | 52.66210 | -15.51266 | 50437 ft | 1137 kts | 298° |
| 2026-05-06 22:47 | 52.73560 | -15.74191 | 50478 ft | 1137 kts | 298° |
| 2026-05-06 22:48 | 52.81021 | -15.97223 | 50516 ft | 1136 kts | 298° |
| 2026-05-06 22:48 | 52.87218 | -16.16426 | 50551 ft | 1136 kts | 298° |
| 2026-05-06 22:49 | 52.94546 | -16.39626 | 50585 ft | 1135 kts | 297° |
| 2026-05-06 22:49 | 53.01742 | -16.62981 | 50613 ft | 1135 kts | 297° |
| 2026-05-06 22:50 | 53.08835 | -16.86438 | 50640 ft | 1135 kts | 296° |
| 2026-05-06 22:50 | 53.15874 | -17.10033 | 50668 ft | 1135 kts | 296° |
| 2026-05-06 22:51 | 53.22828 | -17.33557 | 50691 ft | 1136 kts | 296° |
| 2026-05-06 22:51 | 53.29784 | -17.57235 | 50727 ft | 1135 kts | 296° |
| 2026-05-06 22:52 | 53.36723 | -17.80975 | 50756 ft | 1135 kts | 296° |
| 2026-05-06 22:52 | 53.43635 | -18.04770 | 50785 ft | 1135 kts | 296° |
| 2026-05-06 22:53 | 53.50512 | -18.28667 | 50816 ft | 1135 kts | 296° |
| 2026-05-06 22:53 | 53.57330 | -18.52637 | 50847 ft | 1135 kts | 295° |
| 2026-05-06 22:54 | 53.64090 | -18.76686 | 50877 ft | 1136 kts | 295° |
| 2026-05-06 22:54 | 53.70765 | -19.00705 | 50905 ft | 1136 kts | 295° |
| 2026-05-06 22:55 | 53.77458 | -19.24929 | 50934 ft | 1137 kts | 295° |
| 2026-05-06 22:55 | 53.84129 | -19.49202 | 50966 ft | 1136 kts | 295° |
| 2026-05-06 22:56 | 53.90747 | -19.73529 | 50992 ft | 1137 kts | 295° |
| 2026-05-06 22:56 | 53.97272 | -19.97996 | 51013 ft | 1138 kts | 294° |
| 2026-05-06 22:57 | 54.03625 | -20.22652 | 51043 ft | 1138 kts | 293° |
| 2026-05-06 22:57 | 54.09845 | -20.47431 | 51085 ft | 1138 kts | 293° |
| 2026-05-06 22:58 | 54.15979 | -20.72337 | 51139 ft | 1138 kts | 292° |
| 2026-05-06 22:58 | 54.22009 | -20.97147 | 51190 ft | 1138 kts | 292° |
| 2026-05-06 22:59 | 54.28036 | -21.22187 | 51240 ft | 1138 kts | 292° |
| 2026-05-06 22:59 | 54.34035 | -21.47287 | 51296 ft | 1137 kts | 292° |
| 2026-05-06 23:00 | 54.39993 | -21.72392 | 51346 ft | 1136 kts | 292° |
| 2026-05-06 23:00 | 54.45913 | -21.97560 | 51391 ft | 1137 kts | 292° |
| 2026-05-06 23:01 | 54.51790 | -22.22848 | 51442 ft | 1136 kts | 292° |
| 2026-05-06 23:01 | 54.57558 | -22.48005 | 51483 ft | 1136 kts | 291° |
| 2026-05-06 23:02 | 54.63310 | -22.73432 | 51517 ft | 1137 kts | 291° |
| 2026-05-06 23:02 | 54.69000 | -22.98917 | 51558 ft | 1137 kts | 291° |
| 2026-05-06 23:03 | 54.74638 | -23.24486 | 51598 ft | 1137 kts | 291° |
| 2026-05-06 23:03 | 54.80227 | -23.50136 | 51633 ft | 1137 kts | 291° |
| 2026-05-06 23:04 | 54.85763 | -23.75850 | 51669 ft | 1137 kts | 291° |
| 2026-05-06 23:04 | 54.91250 | -24.01643 | 51712 ft | 1137 kts | 290° |
| 2026-05-06 23:05 | 54.96683 | -24.27510 | 51755 ft | 1137 kts | 290° |
| 2026-05-06 23:05 | 55.02031 | -24.53299 | 51800 ft | 1137 kts | 290° |
| 2026-05-06 23:06 | 55.07345 | -24.79268 | 51841 ft | 1137 kts | 290° |
| 2026-05-06 23:06 | 55.12609 | -25.05331 | 51879 ft | 1137 kts | 290° |
| 2026-05-06 23:07 | 55.17812 | -25.31443 | 51911 ft | 1138 kts | 289° |
| 2026-05-06 23:07 | 55.22965 | -25.57652 | 51952 ft | 1137 kts | 289° |
| 2026-05-06 23:08 | 55.28066 | -25.83948 | 51984 ft | 1137 kts | 289° |
| 2026-05-06 23:08 | 55.33100 | -26.10255 | 52019 ft | 1137 kts | 289° |
| 2026-05-06 23:09 | 55.38080 | -26.36644 | 52052 ft | 1137 kts | 289° |
| 2026-05-06 23:09 | 55.42972 | -26.62929 | 52084 ft | 1138 kts | 288° |
| 2026-05-06 23:10 | 55.47849 | -26.89504 | 52133 ft | 1138 kts | 288° |
| 2026-05-06 23:10 | 55.52673 | -27.16173 | 52175 ft | 1139 kts | 288° |
| 2026-05-06 23:11 | 55.57431 | -27.42864 | 52220 ft | 1139 kts | 288° |
| 2026-05-06 23:11 | 55.62132 | -27.69627 | 52259 ft | 1139 kts | 288° |
| 2026-05-06 23:12 | 55.66743 | -27.96269 | 52297 ft | 1139 kts | 287° |
| 2026-05-06 23:12 | 55.71329 | -28.23169 | 52331 ft | 1139 kts | 287° |
| 2026-05-06 23:13 | 55.75855 | -28.50121 | 52364 ft | 1139 kts | 287° |
| 2026-05-06 23:13 | 55.80324 | -28.77149 | 52393 ft | 1140 kts | 287° |
| 2026-05-06 23:14 | 55.84759 | -29.04246 | 52419 ft | 1140 kts | 287° |
| 2026-05-06 23:14 | 55.89157 | -29.31377 | 52447 ft | 1141 kts | 287° |
| 2026-05-06 23:15 | 55.93505 | -29.58623 | 52474 ft | 1140 kts | 286° |
| 2026-05-06 23:15 | 55.97727 | -29.85756 | 52496 ft | 1140 kts | 285° |
| 2026-05-06 23:16 | 56.01783 | -30.13149 | 52520 ft | 1140 kts | 285° |
| 2026-05-06 23:16 | 56.05689 | -30.40669 | 52547 ft | 1141 kts | 284° |
| 2026-05-06 23:17 | 56.09481 | -30.68257 | 52574 ft | 1141 kts | 284° |
| 2026-05-06 23:17 | 56.13198 | -30.95944 | 52605 ft | 1142 kts | 284° |
| 2026-05-06 23:18 | 56.16838 | -31.23535 | 52640 ft | 1142 kts | 284° |
| 2026-05-06 23:18 | 56.20457 | -31.51344 | 52682 ft | 1142 kts | 283° |
| 2026-05-06 23:19 | 56.24034 | -31.79172 | 52726 ft | 1143 kts | 283° |
| 2026-05-06 23:19 | 56.27565 | -32.07037 | 52767 ft | 1143 kts | 283° |
| 2026-05-06 23:20 | 56.31044 | -32.34999 | 52808 ft | 1143 kts | 283° |
| 2026-05-06 23:20 | 56.34438 | -32.62861 | 52846 ft | 1144 kts | 283° |
| 2026-05-06 23:21 | 56.37782 | -32.90948 | 52882 ft | 1144 kts | 282° |
| 2026-05-06 23:21 | 56.41056 | -33.19078 | 52912 ft | 1145 kts | 282° |
| 2026-05-06 23:22 | 56.44266 | -33.47287 | 52943 ft | 1145 kts | 282° |
| 2026-05-06 23:22 | 56.47413 | -33.75553 | 52975 ft | 1145 kts | 282° |
| 2026-05-06 23:23 | 56.50496 | -34.03840 | 53006 ft | 1146 kts | 282° |
| 2026-05-06 23:23 | 56.53518 | -34.32199 | 53038 ft | 1146 kts | 281° |
| 2026-05-06 23:24 | 56.56463 | -34.60458 | 53070 ft | 1146 kts | 281° |
| 2026-05-06 23:24 | 56.59358 | -34.88900 | 53105 ft | 1146 kts | 281° |
| 2026-05-06 23:25 | 56.62191 | -35.17415 | 53138 ft | 1146 kts | 281° |
| 2026-05-06 23:25 | 56.64955 | -35.45938 | 53168 ft | 1146 kts | 280° |
| 2026-05-06 23:26 | 56.67656 | -35.74533 | 53201 ft | 1146 kts | 280° |
| 2026-05-06 23:26 | 56.70269 | -36.02925 | 53234 ft | 1146 kts | 280° |
| 2026-05-06 23:27 | 56.72836 | -36.31573 | 53266 ft | 1146 kts | 279° |
| 2026-05-06 23:27 | 56.75343 | -36.60318 | 53297 ft | 1146 kts | 279° |
| 2026-05-06 23:28 | 56.77779 | -36.89045 | 53328 ft | 1146 kts | 279° |
| 2026-05-06 23:28 | 56.80149 | -37.17818 | 53360 ft | 1147 kts | 279° |
| 2026-05-06 23:29 | 56.82448 | -37.46557 | 53390 ft | 1147 kts | 279° |
| 2026-05-06 23:29 | 56.84688 | -37.75416 | 53422 ft | 1147 kts | 278° |
| 2026-05-06 23:30 | 56.86848 | -38.04131 | 53453 ft | 1147 kts | 278° |
| 2026-05-06 23:30 | 56.88616 | -38.28354 | 53479 ft | 1147 kts | 278° |
| 2026-05-06 23:31 | 56.90992 | -38.61992 | 53517 ft | 1148 kts | 278° |
| 2026-05-06 23:31 | 56.92975 | -38.90984 | 53552 ft | 1148 kts | 277° |
| 2026-05-06 23:32 | 56.94903 | -39.20003 | 53587 ft | 1148 kts | 277° |
| 2026-05-06 23:32 | 56.96459 | -39.44350 | 53616 ft | 1148 kts | 277° |
| 2026-05-06 23:33 | 56.98214 | -39.73249 | 53651 ft | 1148 kts | 277° |
| 2026-05-06 23:33 | 56.99847 | -40.02395 | 53687 ft | 1147 kts | 276° |
| 2026-05-06 23:34 | 57.01230 | -40.31616 | 53721 ft | 1148 kts | 275° |
| 2026-05-06 23:34 | 57.02356 | -40.60863 | 53755 ft | 1148 kts | 274° |
| 2026-05-06 23:35 | 57.03306 | -40.90151 | 53788 ft | 1148 kts | 274° |
| 2026-05-06 23:35 | 57.04135 | -41.19233 | 53821 ft | 1149 kts | 273° |
| 2026-05-06 23:36 | 57.04896 | -41.48581 | 53854 ft | 1149 kts | 273° |
| 2026-05-06 23:36 | 57.05607 | -41.77898 | 53885 ft | 1149 kts | 273° |
| 2026-05-06 23:37 | 57.06288 | -42.07264 | 53916 ft | 1149 kts | 273° |
| 2026-05-06 23:37 | 57.06939 | -42.36627 | 53949 ft | 1149 kts | 272° |
| 2026-05-06 23:38 | 57.07548 | -42.65995 | 53983 ft | 1149 kts | 272° |
| 2026-05-06 23:38 | 57.08086 | -42.95201 | 54018 ft | 1149 kts | 272° |
| 2026-05-06 23:39 | 57.08549 | -43.24572 | 54055 ft | 1149 kts | 272° |
| 2026-05-06 23:39 | 57.08931 | -43.54020 | 54091 ft | 1149 kts | 271° |
| 2026-05-06 23:40 | 57.09235 | -43.83381 | 54119 ft | 1148 kts | 271° |
| 2026-05-06 23:40 | 57.09466 | -44.12568 | 54142 ft | 1148 kts | 271° |
| 2026-05-06 23:41 | 57.09630 | -44.41976 | 54167 ft | 1148 kts | 271° |
| 2026-05-06 23:41 | 57.09728 | -44.71348 | 54191 ft | 1148 kts | 270° |
| 2026-05-06 23:42 | 57.09761 | -45.00812 | 54216 ft | 1148 kts | 270° |
| 2026-05-06 23:42 | 57.09727 | -45.30023 | 54240 ft | 1149 kts | 270° |
| 2026-05-06 23:43 | 57.09625 | -45.59443 | 54266 ft | 1149 kts | 270° |
| 2026-05-06 23:43 | 57.09455 | -45.88857 | 54292 ft | 1149 kts | 269° |
| 2026-05-06 23:44 | 57.09215 | -46.18261 | 54316 ft | 1149 kts | 269° |
| 2026-05-06 23:44 | 57.08905 | -46.47649 | 54329 ft | 1149 kts | 269° |
| 2026-05-06 23:45 | 57.08525 | -46.77050 | 54345 ft | 1150 kts | 269° |
| 2026-05-06 23:45 | 57.08079 | -47.06272 | 54364 ft | 1150 kts | 268° |
| 2026-05-06 23:46 | 57.07561 | -47.35719 | 54383 ft | 1151 kts | 268° |
| 2026-05-06 23:46 | 57.06975 | -47.65140 | 54405 ft | 1151 kts | 268° |
| 2026-05-06 23:47 | 57.06320 | -47.94555 | 54427 ft | 1151 kts | 268° |
| 2026-05-06 23:47 | 57.05596 | -48.23984 | 54452 ft | 1152 kts | 267° |
| 2026-05-06 23:48 | 57.04809 | -48.53199 | 54479 ft | 1152 kts | 267° |
| 2026-05-06 23:48 | 57.04025 | -48.82595 | 54507 ft | 1152 kts | 268° |
| 2026-05-06 23:49 | 57.03548 | -49.12050 | 54537 ft | 1152 kts | 269° |
| 2026-05-06 23:49 | 57.03339 | -49.41524 | 54568 ft | 1152 kts | 270° |
| 2026-05-06 23:50 | 57.03356 | -49.70734 | 54600 ft | 1152 kts | 270° |
| 2026-05-06 23:50 | 57.03761 | -50.14862 | 54646 ft | 1152 kts | 271° |
| 2026-05-06 23:51 | 57.04267 | -50.44292 | 54676 ft | 1152 kts | 272° |
| 2026-05-06 23:51 | 57.04930 | -50.73715 | 54705 ft | 1152 kts | 272° |
| 2026-05-06 23:52 | 57.05732 | -51.03131 | 54732 ft | 1152 kts | 273° |
| 2026-05-06 23:52 | 57.06681 | -51.32541 | 54757 ft | 1152 kts | 274° |
| 2026-05-06 23:53 | 57.07859 | -51.61760 | 54781 ft | 1152 kts | 275° |
| 2026-05-06 23:53 | 57.09224 | -51.91129 | 54795 ft | 1152 kts | 275° |
| 2026-05-06 23:54 | 57.10646 | -52.20518 | 54801 ft | 1153 kts | 275° |
| 2026-05-06 23:54 | 57.12005 | -52.49903 | 54799 ft | 1152 kts | 274° |
| 2026-05-06 23:55 | 57.13197 | -52.79341 | 54795 ft | 1153 kts | 274° |
| 2026-05-06 23:55 | 57.14242 | -53.08810 | 54798 ft | 1154 kts | 273° |
| 2026-05-06 23:56 | 57.15170 | -53.38191 | 54813 ft | 1154 kts | 273° |
| 2026-05-06 23:56 | 57.16021 | -53.67739 | 54829 ft | 1154 kts | 273° |
| 2026-05-06 23:57 | 57.16808 | -53.97318 | 54846 ft | 1154 kts | 272° |
| 2026-05-06 23:57 | 57.17543 | -54.26896 | 54865 ft | 1154 kts | 272° |
| 2026-05-06 23:58 | 57.18225 | -54.56266 | 54872 ft | 1154 kts | 272° |
| 2026-05-06 23:58 | 57.18858 | -54.85849 | 54877 ft | 1154 kts | 272° |
| 2026-05-06 23:59 | 57.19429 | -55.15468 | 54890 ft | 1154 kts | 272° |
| 2026-05-06 23:59 | 57.19929 | -55.45123 | 54905 ft | 1154 kts | 271° |
| 2026-05-07 00:00 | 57.20350 | -55.74540 | 54922 ft | 1154 kts | 271° |
| 2026-05-07 00:00 | 57.20648 | -55.99355 | 54936 ft | 1155 kts | 271° |
| 2026-05-07 00:01 | 57.20975 | -56.33785 | 54958 ft | 1154 kts | 270° |
| 2026-05-07 00:01 | 57.21179 | -56.63435 | 54967 ft | 1154 kts | 270° |
| 2026-05-07 00:02 | 57.21315 | -56.93062 | 54975 ft | 1154 kts | 270° |
| 2026-05-07 00:02 | 57.21381 | -57.22665 | 54987 ft | 1154 kts | 270° |
| 2026-05-07 00:03 | 57.21380 | -57.52298 | 55002 ft | 1154 kts | 270° |
| 2026-05-07 00:03 | 57.21310 | -57.81926 | 55019 ft | 1154 kts | 269° |
| 2026-05-07 00:04 | 57.21093 | -58.11355 | 55036 ft | 1154 kts | 269° |
| 2026-05-07 00:04 | 57.20749 | -58.40988 | 55055 ft | 1155 kts | 269° |
| 2026-05-07 00:05 | 57.20396 | -58.70618 | 55073 ft | 1155 kts | 269° |
| 2026-05-07 00:05 | 57.20106 | -59.00274 | 55088 ft | 1156 kts | 269° |
| 2026-05-07 00:06 | 57.19968 | -59.29959 | 55105 ft | 1156 kts | 270° |
| 2026-05-07 00:06 | 57.20131 | -59.59652 | 55111 ft | 1156 kts | 271° |
| 2026-05-07 00:07 | 57.20483 | -59.89122 | 55119 ft | 1157 kts | 271° |
| 2026-05-07 00:07 | 57.20893 | -60.18856 | 55098 ft | 1160 kts | 271° |
| 2026-05-07 00:08 | 57.21237 | -60.48649 | 55100 ft | 1160 kts | 270° |
| 2026-05-07 00:08 | 57.21397 | -60.78295 | 55104 ft | 1161 kts | 270° |
| 2026-05-07 00:09 | 57.21398 | -61.08078 | 55114 ft | 1161 kts | 269° |
| 2026-05-07 00:09 | 57.21155 | -61.37849 | 55120 ft | 1160 kts | 265° |
| 2026-05-07 00:10 | 57.18760 | -61.67210 | 55058 ft | 1158 kts | 255° |
| 2026-05-07 00:10 | 57.14207 | -61.95551 | 55040 ft | 1159 kts | 251° |
| 2026-05-07 00:11 | 57.08803 | -62.23568 | 55059 ft | 1161 kts | 249° |
| 2026-05-07 00:11 | 57.03016 | -62.51280 | 55093 ft | 1161 kts | 248° |
| 2026-05-07 00:12 | 56.96982 | -62.78789 | 55128 ft | 1161 kts | 247° |
| 2026-05-07 00:12 | 56.90776 | -63.05952 | 55163 ft | 1162 kts | 246° |
| 2026-05-07 00:13 | 56.84331 | -63.33067 | 55194 ft | 1162 kts | 246° |
| 2026-05-07 00:13 | 56.77687 | -63.59953 | 55229 ft | 1162 kts | 245° |
| 2026-05-07 00:14 | 56.70832 | -63.86641 | 55267 ft | 1162 kts | 244° |
| 2026-05-07 00:14 | 56.63772 | -64.13089 | 55300 ft | 1162 kts | 243° |
| 2026-05-07 00:15 | 56.56505 | -64.39276 | 55328 ft | 1162 kts | 242° |
| 2026-05-07 00:15 | 56.49016 | -64.65230 | 55352 ft | 1162 kts | 242° |
| 2026-05-07 00:16 | 56.41299 | -64.90917 | 55377 ft | 1162 kts | 240° |
| 2026-05-07 00:16 | 56.33336 | -65.16306 | 55403 ft | 1162 kts | 239° |
| 2026-05-07 00:17 | 56.25058 | -65.41185 | 55428 ft | 1161 kts | 238° |
| 2026-05-07 00:17 | 56.16371 | -65.65659 | 55453 ft | 1161 kts | 236° |
| 2026-05-07 00:18 | 56.07444 | -65.89828 | 55479 ft | 1161 kts | 236° |
| 2026-05-07 00:18 | 55.98329 | -66.13701 | 55505 ft | 1161 kts | 235° |
| 2026-05-07 00:19 | 55.90648 | -66.33361 | 55526 ft | 1161 kts | 234° |
| 2026-05-07 00:19 | 55.79875 | -66.60727 | 55557 ft | 1161 kts | 235° |
| 2026-05-07 00:20 | 55.72223 | -66.80325 | 55580 ft | 1160 kts | 235° |
| 2026-05-07 00:20 | 55.63105 | -67.04012 | 55607 ft | 1160 kts | 236° |
| 2026-05-07 00:21 | 55.54075 | -67.27653 | 55635 ft | 1160 kts | 236° |
| 2026-05-07 00:21 | 55.45046 | -67.51145 | 55661 ft | 1160 kts | 235° |
| 2026-05-07 00:22 | 55.35895 | -67.74499 | 55689 ft | 1160 kts | 235° |
| 2026-05-07 00:22 | 55.26619 | -67.97736 | 55717 ft | 1160 kts | 234° |
| 2026-05-07 00:23 | 55.17279 | -68.20780 | 55746 ft | 1159 kts | 234° |
| 2026-05-07 00:23 | 55.07891 | -68.43673 | 55769 ft | 1158 kts | 234° |
| 2026-05-07 00:24 | 54.98457 | -68.66461 | 55786 ft | 1158 kts | 234° |
| 2026-05-07 00:24 | 54.89006 | -68.89113 | 55801 ft | 1157 kts | 234° |
| 2026-05-07 00:25 | 54.79568 | -69.11571 | 55814 ft | 1157 kts | 233° |
| 2026-05-07 00:25 | 54.70053 | -69.34054 | 55831 ft | 1156 kts | 233° |
| 2026-05-07 00:26 | 54.60516 | -69.56415 | 55849 ft | 1156 kts | 233° |
| 2026-05-07 00:26 | 54.50951 | -69.78651 | 55868 ft | 1155 kts | 233° |
| 2026-05-07 00:27 | 54.41344 | -70.00782 | 55887 ft | 1155 kts | 233° |
| 2026-05-07 00:27 | 54.31688 | -70.22818 | 55916 ft | 1154 kts | 233° |
| 2026-05-07 00:28 | 54.22049 | -70.44610 | 55938 ft | 1155 kts | 233° |
| 2026-05-07 00:28 | 54.12308 | -70.66434 | 55973 ft | 1155 kts | 232° |
| 2026-05-07 00:29 | 54.02516 | -70.88177 | 56018 ft | 1155 kts | 232° |
| 2026-05-07 00:30 | 53.82839 | -71.31306 | 56124 ft | 1154 kts | 232° |
| 2026-05-07 00:30 | 53.72950 | -71.52708 | 56178 ft | 1154 kts | 232° |
| 2026-05-07 00:31 | 53.62659 | -71.73246 | 56202 ft | 1152 kts | 226° |
| 2026-05-07 00:31 | 53.51430 | -71.92557 | 56224 ft | 1153 kts | 224° |
| 2026-05-07 00:32 | 53.39827 | -72.11189 | 56272 ft | 1154 kts | 223° |
| 2026-05-07 00:32 | 53.28004 | -72.29395 | 56323 ft | 1153 kts | 222° |
| 2026-05-07 00:33 | 53.16122 | -72.47120 | 56364 ft | 1153 kts | 221° |
| 2026-05-07 00:33 | 53.04039 | -72.64652 | 56407 ft | 1152 kts | 220° |
| 2026-05-07 00:34 | 52.91828 | -72.81877 | 56445 ft | 1151 kts | 220° |
| 2026-05-07 00:34 | 52.79482 | -72.98794 | 56482 ft | 1151 kts | 219° |
| 2026-05-07 00:35 | 52.67014 | -73.15363 | 56518 ft | 1151 kts | 218° |
| 2026-05-07 00:35 | 52.54407 | -73.31587 | 56551 ft | 1151 kts | 217° |
| 2026-05-07 00:36 | 52.41713 | -73.47337 | 56569 ft | 1145 kts | 216° |
| 2026-05-07 00:36 | 52.35328 | -73.54949 | 56442 ft | 1118 kts | 215° |
| 2026-05-07 00:36 | 52.29052 | -73.62186 | 56291 ft | 1090 kts | 214° |
| 2026-05-07 00:37 | 52.22857 | -73.69141 | 56138 ft | 1064 kts | 214° |
| 2026-05-07 00:37 | 52.16793 | -73.75810 | 55986 ft | 1039 kts | 214° |
| 2026-05-07 00:37 | 52.10926 | -73.82164 | 55838 ft | 1014 kts | 213° |
| 2026-05-07 00:37 | 52.05086 | -73.88414 | 55687 ft | 989 kts | 213° |
| 2026-05-07 00:38 | 51.99399 | -73.94448 | 55537 ft | 965 kts | 213° |
| 2026-05-07 00:38 | 51.93839 | -74.00309 | 55387 ft | 940 kts | 213° |
| 2026-05-07 00:38 | 51.88429 | -74.05990 | 55236 ft | 915 kts | 213° |
| 2026-05-07 00:38 | 51.83163 | -74.11503 | 55086 ft | 889 kts | 213° |
| 2026-05-07 00:39 | 51.78029 | -74.16870 | 54935 ft | 864 kts | 213° |
| 2026-05-07 00:39 | 51.73063 | -74.22064 | 54784 ft | 838 kts | 213° |
| 2026-05-07 00:39 | 51.68259 | -74.27102 | 54633 ft | 809 kts | 213° |
| 2026-05-07 00:39 | 51.63697 | -74.31924 | 54484 ft | 779 kts | 213° |
| 2026-05-07 00:40 | 51.59266 | -74.36646 | 54332 ft | 747 kts | 214° |
| 2026-05-07 00:40 | 51.55030 | -74.41176 | 54180 ft | 715 kts | 214° |
| 2026-05-07 00:40 | 51.50978 | -74.45510 | 54028 ft | 682 kts | 214° |
| 2026-05-07 00:40 | 51.47106 | -74.49630 | 53876 ft | 651 kts | 214° |
| 2026-05-07 00:41 | 51.43422 | -74.53522 | 53724 ft | 614 kts | 213° |
| 2026-05-07 00:41 | 51.40049 | -74.57060 | 53569 ft | 542 kts | 213° |
| 2026-05-07 00:41 | 51.37134 | -74.60099 | 53415 ft | 458 kts | 213° |
| 2026-05-07 00:41 | 51.34715 | -74.62605 | 53356 ft | 362 kts | 229° |
| 2026-05-07 00:42 | 51.33442 | -74.64193 | 49884 ft | 454 kts | 33° |
| 2026-05-07 00:42 | 51.31639 | -74.64090 | 50547 ft | 351 kts | 104° |
| 2026-05-07 00:42 | 51.29680 | -74.61505 | 46137 ft | 513 kts | 115° |
| 2026-05-07 00:42 | 51.28516 | -74.55900 | 41929 ft | 564 kts | 99° |
| 2026-05-07 00:43 | 51.27939 | -74.49668 | 34044 ft | 558 kts | 102° |
| 2026-05-07 00:43 | 51.27048 | -74.44745 | 16952 ft | 424 kts | 112° |
| 2026-05-07 00:43 | 51.26432 | -74.41572 | 1100 ft | 6 kts | 108° |
| 2026-05-07 00:43 | 51.26448 | -74.41575 | 1109 ft | 9 kts | 277° |
| 2026-05-07 00:44 | 51.26468 | -74.41551 | 1122 ft | 9 kts | 346° |
| 2026-05-07 00:44 | 51.26457 | -74.41556 | 1098 ft | 6 kts | 115° |
| 2026-05-07 00:44 | 51.26474 | -74.41568 | 1101 ft | 7 kts | 224° |
| 2026-05-07 00:44 | 51.26468 | -74.41588 | 1097 ft | 22 kts | 251° |
| 2026-05-07 00:45 | 51.26453 | -74.41553 | 1103 ft | 6 kts | 360° |
| 2026-05-07 00:45 | 51.26458 | -74.41552 | 1103 ft | 10 kts | 357° |
| 2026-05-07 00:45 | 51.26451 | -74.41564 | 1101 ft | 5 kts | 132° |
| 2026-05-07 00:45 | 51.26473 | -74.41573 | 1103 ft | 4 kts | 248° |
| 2026-05-07 00:46 | 51.26454 | -74.41580 | 1147 ft | 6 kts | 292° |
| 2026-05-07 00:46 | 51.26452 | -74.41589 | 1123 ft | 10 kts | 259° |
| 2026-05-07 00:46 | 51.26468 | -74.41549 | 1181 ft | 4 kts | 27° |
| 2026-05-07 00:46 | 51.26457 | -74.41587 | 1160 ft | 3 kts | 192° |
| 2026-05-07 00:47 | 51.26445 | -74.41549 | 1101 ft | 4 kts | 351° |
| 2026-05-07 00:47 | 51.26444 | -74.41595 | 1158 ft | 3 kts | 292° |
| 2026-05-07 00:47 | 51.26467 | -74.41646 | 1101 ft | 7 kts | 125° |
| 2026-05-07 00:47 | 51.26475 | -74.41656 | 1101 ft | 4 kts | 197° |
| 2026-05-07 00:48 | 51.26482 | -74.41650 | 1103 ft | 4 kts | 253° |
| 2026-05-07 00:48 | 51.26480 | -74.41632 | 1103 ft | 3 kts | 344° |
| 2026-05-07 00:48 | 51.26470 | -74.41654 | 1102 ft | 5 kts | 158° |
| 2026-05-07 00:48 | 51.26480 | -74.41655 | 1101 ft | 5 kts | 238° |
| 2026-05-07 00:49 | 51.26483 | -74.41639 | 1100 ft | 5 kts | 313° |
| 2026-05-07 00:49 | 51.26470 | -74.41636 | 1098 ft | 8 kts | 59° |
| 2026-05-07 00:49 | 51.26477 | -74.41659 | 1100 ft | 4 kts | 209° |
| 2026-05-07 00:49 | 51.26481 | -74.41640 | 1101 ft | 4 kts | 317° |
| 2026-05-07 00:50 | 51.26468 | -74.41638 | 1103 ft | 8 kts | 59° |
| 2026-05-07 00:50 | 51.26475 | -74.41661 | 1100 ft | 3 kts | 209° |
| 2026-05-07 00:50 | 51.26475 | -74.41644 | 1101 ft | 5 kts | 321° |
| 2026-05-07 00:50 | 51.26462 | -74.41647 | 1171 ft | 2 kts | 65° |
| 2026-05-07 00:51 | 51.26480 | -74.41630 | 1101 ft | 4 kts | 281° |
| 2026-05-07 00:51 | 51.26471 | -74.41616 | 1103 ft | 5 kts | 31° |
| 2026-05-07 00:51 | 51.26466 | -74.41632 | 1102 ft | 8 kts | 121° |
| 2026-05-07 00:51 | 51.26475 | -74.41643 | 1101 ft | 3 kts | 209° |
| 2026-05-07 00:52 | 51.26482 | -74.41631 | 1100 ft | 5 kts | 288° |
| 2026-05-07 00:52 | 51.26470 | -74.41620 | 1099 ft | 6 kts | 46° |
| 2026-05-07 00:52 | 51.26472 | -74.41643 | 1102 ft | 5 kts | 184° |
| 2026-05-07 00:52 | 51.26481 | -74.41635 | 1099 ft | 4 kts | 268° |
| 2026-05-07 00:53 | 51.26475 | -74.41618 | 1099 ft | 5 kts | 11° |
| 2026-05-07 00:53 | 51.26467 | -74.41637 | 1101 ft | 7 kts | 136° |
| 2026-05-07 00:53 | 51.26476 | -74.41643 | 1102 ft | 3 kts | 215° |
| 2026-05-07 00:53 | 51.26481 | -74.41627 | 1100 ft | 3 kts | 306° |
| 2026-05-07 00:54 | 51.26471 | -74.41619 | 1100 ft | 6 kts | 39° |
| 2026-05-07 00:54 | 51.26471 | -74.41644 | 1103 ft | 4 kts | 178° |
| 2026-05-07 00:54 | 51.26481 | -74.41640 | 1100 ft | 6 kts | 251° |
| 2026-05-07 00:54 | 51.26476 | -74.41620 | 1102 ft | 4 kts | 6° |
| 2026-05-07 00:55 | 51.26469 | -74.41642 | 1099 ft | 5 kts | 156° |
| 2026-05-07 00:55 | 51.26482 | -74.41636 | 1103 ft | 2 kts | 276° |
| 2026-05-07 00:55 | 51.26467 | -74.41625 | 1103 ft | 8 kts | 71° |
| 2026-05-07 00:55 | 51.26472 | -74.41646 | 1101 ft | 4 kts | 187° |
| 2026-05-07 00:56 | 51.26481 | -74.41638 | 1102 ft | 4 kts | 271° |
| 2026-05-07 00:56 | 51.26475 | -74.41622 | 1101 ft | 5 kts | 5° |
| 2026-05-07 00:56 | 51.26469 | -74.41646 | 1098 ft | 5 kts | 167° |
| 2026-05-07 00:56 | 51.26479 | -74.41643 | 1100 ft | 4 kts | 268° |
| 2026-05-07 00:57 | 51.26477 | -74.41629 | 1101 ft | 7 kts | 357° |
| 2026-05-07 00:57 | 51.26468 | -74.41650 | 1103 ft | 4 kts | 151° |
| 2026-05-07 00:57 | 51.26480 | -74.41651 | 1103 ft | 5 kts | 237° |
| 2026-05-07 00:57 | 51.26479 | -74.41630 | 1102 ft | 5 kts | 355° |
| 2026-05-07 00:58 | 51.26468 | -74.41646 | 1100 ft | 6 kts | 137° |
| 2026-05-07 00:58 | 51.26481 | -74.41651 | 1100 ft | 4 kts | 242° |
| 2026-05-07 00:58 | 51.26483 | -74.41637 | 1102 ft | 4 kts | 315° |
| 2026-05-07 00:58 | 51.26469 | -74.41636 | 1101 ft | 9 kts | 79° |
| 2026-05-07 00:59 | 51.26483 | -74.41637 | 1100 ft | 6 kts | 316° |
| 2026-05-07 00:59 | 51.26472 | -74.41634 | 1099 ft | 7 kts | 48° |
| 2026-05-07 00:59 | 51.26472 | -74.41657 | 1103 ft | 4 kts | 174° |
| 2026-05-07 01:00 | 51.26483 | -74.41651 | 1101 ft | 3 kts | 269° |
| 2026-05-07 01:00 | 51.26472 | -74.41634 | 1103 ft | 6 kts | 34° |
| 2026-05-07 01:00 | 51.26471 | -74.41659 | 1101 ft | 5 kts | 175° |
| 2026-05-07 01:00 | 51.26478 | -74.41649 | 1101 ft | 4 kts | 281° |
| 2026-05-07 01:01 | 51.26463 | -74.41637 | 1181 ft | 2 kts | 71° |
| 2026-05-07 01:01 | 51.26465 | -74.41661 | 1100 ft | 13 kts | 212° |
| 2026-05-07 01:01 | 51.26551 | -74.41671 | 1102 ft | 4 kts | 51° |
| 2026-05-07 01:01 | 51.26557 | -74.41623 | 1107 ft | 5 kts | 43° |
| 2026-05-07 01:02 | 51.26570 | -74.41588 | 1114 ft | 1 kts | 40° |
| 2026-05-07 01:02 | 51.26578 | -74.41582 | 1113 ft | 1 kts | 7° |
| 2026-05-07 01:02 | 51.26586 | -74.41582 | 1115 ft | 0 kts | 325° |
| 2026-05-07 01:02 | 51.26584 | -74.41595 | 1115 ft | 5 kts | 226° |
| 2026-05-07 01:03 | 51.26589 | -74.41586 | 1113 ft | 5 kts | 256° |
| 2026-05-07 01:03 | 51.26591 | -74.41580 | 1113 ft | 4 kts | 278° |
| 2026-05-07 01:03 | 51.26592 | -74.41573 | 1116 ft | 5 kts | 306° |
| 2026-05-07 01:03 | 51.26588 | -74.41563 | 1114 ft | 8 kts | 0° |
| 2026-05-07 01:04 | 51.26584 | -74.41563 | 1112 ft | 9 kts | 41° |
| 2026-05-07 01:04 | 51.26580 | -74.41571 | 1114 ft | 8 kts | 95° |
| 2026-05-07 01:04 | 51.26581 | -74.41579 | 1113 ft | 7 kts | 147° |
| 2026-05-07 01:04 | 51.26586 | -74.41584 | 1113 ft | 5 kts | 181° |
| 2026-05-07 01:05 | 51.26591 | -74.41584 | 1114 ft | 6 kts | 213° |
| 2026-05-07 01:05 | 51.26596 | -74.41579 | 1113 ft | 4 kts | 255° |
| 2026-05-07 01:05 | 51.26598 | -74.41573 | 1117 ft | 5 kts | 285° |
| 2026-05-07 01:05 | 51.26598 | -74.41565 | 1114 ft | 5 kts | 318° |
| 2026-05-07 01:06 | 51.26591 | -74.41558 | 1114 ft | 8 kts | 18° |
| 2026-05-07 01:06 | 51.26583 | -74.41564 | 1112 ft | 8 kts | 88° |
| 2026-05-07 01:06 | 51.26586 | -74.41575 | 1113 ft | 6 kts | 146° |
| 2026-05-07 01:06 | 51.26593 | -74.41580 | 1116 ft | 5 kts | 207° |
| 2026-05-07 01:07 | 51.26599 | -74.41576 | 1117 ft | 5 kts | 253° |
| 2026-05-07 01:07 | 51.26601 | -74.41563 | 1115 ft | 2 kts | 312° |
| 2026-05-07 01:07 | 51.26592 | -74.41556 | 1114 ft | 8 kts | 29° |
| 2026-05-07 01:07 | 51.26585 | -74.41565 | 1112 ft | 8 kts | 100° |
| 2026-05-07 01:08 | 51.26600 | -74.41575 | 1117 ft | 5 kts | 253° |
| 2026-05-07 01:08 | 51.26601 | -74.41565 | 1116 ft | 3 kts | 299° |
| 2026-05-07 01:08 | 51.26599 | -74.41558 | 1112 ft | 6 kts | 334° |
| 2026-05-07 01:08 | 51.26588 | -74.41558 | 1114 ft | 8 kts | 66° |
| 2026-05-07 01:09 | 51.26586 | -74.41572 | 1113 ft | 7 kts | 136° |
| 2026-05-07 01:09 | 51.26595 | -74.41579 | 1112 ft | 6 kts | 209° |
| 2026-05-07 01:09 | 51.26602 | -74.41571 | 1115 ft | 5 kts | 264° |
| 2026-05-07 01:09 | 51.26603 | -74.41564 | 1113 ft | 6 kts | 295° |
| 2026-05-07 01:10 | 51.26600 | -74.41555 | 1114 ft | 7 kts | 349° |
| 2026-05-07 01:10 | 51.26590 | -74.41557 | 1117 ft | 7 kts | 65° |
| 2026-05-07 01:10 | 51.26589 | -74.41574 | 1113 ft | 7 kts | 149° |
| 2026-05-07 01:10 | 51.26597 | -74.41578 | 1114 ft | 6 kts | 207° |
| 2026-05-07 01:11 | 51.26604 | -74.41571 | 1113 ft | 3 kts | 265° |
| 2026-05-07 01:11 | 51.26604 | -74.41562 | 1113 ft | 6 kts | 311° |
| 2026-05-07 01:11 | 51.26595 | -74.41554 | 1117 ft | 8 kts | 32° |
| 2026-05-07 01:11 | 51.26589 | -74.41567 | 1113 ft | 8 kts | 116° |
| 2026-05-07 01:12 | 51.26594 | -74.41577 | 1115 ft | 6 kts | 179° |
| 2026-05-07 01:12 | 51.26601 | -74.41578 | 1115 ft | 5 kts | 226° |
| 2026-05-07 01:12 | 51.26605 | -74.41570 | 1113 ft | 5 kts | 272° |
| 2026-05-07 01:12 | 51.26605 | -74.41562 | 1115 ft | 4 kts | 312° |
| 2026-05-07 01:13 | 51.26592 | -74.41556 | 1113 ft | 7 kts | 57° |
| 2026-05-07 01:13 | 51.26590 | -74.41570 | 1114 ft | 7 kts | 131° |
| 2026-05-07 01:13 | 51.26597 | -74.41578 | 1117 ft | 5 kts | 198° |
| 2026-05-07 01:13 | 51.26603 | -74.41575 | 1114 ft | 5 kts | 244° |
| 2026-05-07 01:14 | 51.26606 | -74.41567 | 1114 ft | 6 kts | 286° |
| 2026-05-07 01:14 | 51.26605 | -74.41559 | 1116 ft | 6 kts | 324° |
| 2026-05-07 01:14 | 51.26596 | -74.41553 | 1114 ft | 9 kts | 35° |
| 2026-05-07 01:14 | 51.26591 | -74.41565 | 1116 ft | 8 kts | 108° |
| 2026-05-07 01:15 | 51.26598 | -74.41578 | 1113 ft | 6 kts | 189° |
| 2026-05-07 01:15 | 51.26606 | -74.41573 | 1114 ft | 5 kts | 254° |
| 2026-05-07 01:15 | 51.26607 | -74.41565 | 1116 ft | 4 kts | 292° |
| 2026-05-07 01:15 | 51.26605 | -74.41557 | 1115 ft | 8 kts | 336° |
| 2026-05-07 01:16 | 51.26595 | -74.41554 | 1113 ft | 8 kts | 45° |
| 2026-05-07 01:16 | 51.26591 | -74.41560 | 1117 ft | 8 kts | 93° |
| 2026-05-07 01:16 | 51.26593 | -74.41574 | 1112 ft | 7 kts | 159° |
| 2026-05-07 01:16 | 51.26600 | -74.41577 | 1113 ft | 5 kts | 209° |
| 2026-05-07 01:17 | 51.26606 | -74.41570 | 1113 ft | 4 kts | 267° |
| 2026-05-07 01:17 | 51.26605 | -74.41558 | 1113 ft | 6 kts | 322° |
| 2026-05-07 01:17 | 51.26596 | -74.41553 | 1115 ft | 7 kts | 39° |
| 2026-05-07 01:17 | 51.26591 | -74.41569 | 1117 ft | 7 kts | 128° |
| 2026-05-07 01:18 | 51.26602 | -74.41577 | 1116 ft | 5 kts | 215° |
| 2026-05-07 01:18 | 51.26608 | -74.41569 | 1116 ft | 3 kts | 274° |
| 2026-05-07 01:18 | 51.26607 | -74.41558 | 1113 ft | 6 kts | 321° |
| 2026-05-07 01:18 | 51.26600 | -74.41551 | 1116 ft | 8 kts | 14° |
| 2026-05-07 01:19 | 51.26592 | -74.41563 | 1114 ft | 7 kts | 109° |
| 2026-05-07 01:19 | 51.26599 | -74.41577 | 1113 ft | 5 kts | 191° |
| 2026-05-07 01:19 | 51.26606 | -74.41573 | 1115 ft | 4 kts | 245° |
| 2026-05-07 01:19 | 51.26608 | -74.41562 | 1117 ft | 4 kts | 304° |
| 2026-05-07 01:20 | 51.26599 | -74.41551 | 1115 ft | 8 kts | 25° |
| 2026-05-07 01:20 | 51.26592 | -74.41564 | 1112 ft | 6 kts | 109° |
| 2026-05-07 01:20 | 51.26596 | -74.41575 | 1115 ft | 6 kts | 173° |
| 2026-05-07 01:20 | 51.26606 | -74.41573 | 1113 ft | 4 kts | 245° |
| 2026-05-07 01:21 | 51.26608 | -74.41564 | 1112 ft | 3 kts | 295° |
| 2026-05-07 01:21 | 51.26601 | -74.41552 | 1113 ft | 7 kts | 8° |
| 2026-05-07 01:21 | 51.26592 | -74.41560 | 1115 ft | 7 kts | 89° |
| 2026-05-07 01:21 | 51.26596 | -74.41575 | 1113 ft | 7 kts | 175° |
| 2026-05-07 01:22 | 51.26604 | -74.41574 | 1117 ft | 5 kts | 238° |
| 2026-05-07 01:22 | 51.26607 | -74.41563 | 1117 ft | 3 kts | 295° |
| 2026-05-07 01:22 | 51.26600 | -74.41550 | 1114 ft | 8 kts | 6° |
| 2026-05-07 01:22 | 51.26591 | -74.41560 | 1113 ft | 8 kts | 99° |
| 2026-05-07 01:23 | 51.26593 | -74.41571 | 1114 ft | 6 kts | 159° |
| 2026-05-07 01:23 | 51.26601 | -74.41574 | 1113 ft | 5 kts | 219° |
| 2026-05-07 01:23 | 51.26606 | -74.41565 | 1113 ft | 3 kts | 278° |
| 2026-05-07 01:23 | 51.26603 | -74.41553 | 1114 ft | 6 kts | 342° |
| 2026-05-07 01:24 | 51.26592 | -74.41555 | 1113 ft | 8 kts | 66° |
| 2026-05-07 01:24 | 51.26592 | -74.41572 | 1114 ft | 6 kts | 157° |
| 2026-05-07 01:24 | 51.26599 | -74.41576 | 1113 ft | 7 kts | 204° |
| 2026-05-07 01:24 | 51.26606 | -74.41571 | 1115 ft | 5 kts | 257° |
| 2026-05-07 01:25 | 51.26607 | -74.41562 | 1117 ft | 5 kts | 303° |
| 2026-05-07 01:25 | 51.26602 | -74.41553 | 1114 ft | 8 kts | 356° |
| 2026-05-07 01:25 | 51.26592 | -74.41558 | 1117 ft | 8 kts | 79° |
| 2026-05-07 01:25 | 51.26595 | -74.41575 | 1116 ft | 4 kts | 173° |
| 2026-05-07 01:26 | 51.26606 | -74.41572 | 1115 ft | 3 kts | 255° |
| 2026-05-07 01:26 | 51.26607 | -74.41561 | 1115 ft | 4 kts | 304° |
| 2026-05-07 01:26 | 51.26596 | -74.41553 | 1117 ft | 8 kts | 37° |
| 2026-05-07 01:26 | 51.26592 | -74.41572 | 1115 ft | 7 kts | 146° |
| 2026-05-07 01:27 | 51.26600 | -74.41577 | 1115 ft | 6 kts | 203° |
| 2026-05-07 01:27 | 51.26606 | -74.41572 | 1114 ft | 5 kts | 251° |
| 2026-05-07 01:27 | 51.26608 | -74.41562 | 1116 ft | 4 kts | 298° |
| 2026-05-07 01:27 | 51.26602 | -74.41551 | 1114 ft | 7 kts | 14° |
| 2026-05-07 01:28 | 51.26593 | -74.41563 | 1114 ft | 6 kts | 110° |
| 2026-05-07 01:28 | 51.26599 | -74.41574 | 1114 ft | 7 kts | 182° |
| 2026-05-07 01:28 | 51.26610 | -74.41566 | 1116 ft | 3 kts | 270° |
| 2026-05-07 01:28 | 51.26608 | -74.41554 | 1114 ft | 6 kts | 333° |
| 2026-05-07 01:29 | 51.26597 | -74.41554 | 1113 ft | 8 kts | 68° |
| 2026-05-07 01:29 | 51.26598 | -74.41572 | 1115 ft | 6 kts | 162° |
| 2026-05-07 01:29 | 51.26609 | -74.41570 | 1112 ft | 5 kts | 242° |
| 2026-05-07 01:29 | 51.26612 | -74.41557 | 1113 ft | 3 kts | 311° |
| 2026-05-07 01:30 | 51.26599 | -74.41551 | 1114 ft | 7 kts | 59° |
| 2026-05-07 01:30 | 51.26597 | -74.41566 | 1117 ft | 7 kts | 140° |
| 2026-05-07 01:30 | 51.26613 | -74.41560 | 1117 ft | 2 kts | 287° |
| 2026-05-07 01:30 | 51.26602 | -74.41547 | 1114 ft | 9 kts | 48° |
| 2026-05-07 01:31 | 51.26602 | -74.41568 | 1113 ft | 6 kts | 172° |
| 2026-05-07 01:31 | 51.26610 | -74.41568 | 1117 ft | 6 kts | 229° |
| 2026-05-07 01:31 | 51.26616 | -74.41554 | 1117 ft | 3 kts | 297° |
| 2026-05-07 01:31 | 51.26601 | -74.41546 | 1114 ft | 9 kts | 68° |
| 2026-05-07 01:32 | 51.26611 | -74.41566 | 1112 ft | 6 kts | 214° |
| 2026-05-07 01:32 | 51.26618 | -74.41551 | 1115 ft | 2 kts | 308° |
| 2026-05-07 01:32 | 51.26606 | -74.41543 | 1115 ft | 9 kts | 53° |
| 2026-05-07 01:32 | 51.26614 | -74.41566 | 1113 ft | 5 kts | 217° |
| 2026-05-07 01:33 | 51.26620 | -74.41550 | 1115 ft | 2 kts | 307° |
| 2026-05-07 01:33 | 51.26610 | -74.41540 | 1113 ft | 8 kts | 43° |
| 2026-05-07 01:33 | 51.26614 | -74.41562 | 1116 ft | 4 kts | 199° |
| 2026-05-07 01:33 | 51.26623 | -74.41552 | 1117 ft | 3 kts | 276° |
| 2026-05-07 01:34 | 51.26623 | -74.41539 | 1114 ft | 4 kts | 335° |
| 2026-05-07 01:34 | 51.26609 | -74.41547 | 1114 ft | 7 kts | 113° |
| 2026-05-07 01:34 | 51.26618 | -74.41557 | 1113 ft | 6 kts | 205° |
| 2026-05-07 01:34 | 51.26625 | -74.41548 | 1115 ft | 5 kts | 277° |
| 2026-05-07 01:35 | 51.26624 | -74.41535 | 1115 ft | 5 kts | 333° |
| 2026-05-07 01:35 | 51.26612 | -74.41534 | 1116 ft | 8 kts | 58° |
| 2026-05-07 01:35 | 51.26614 | -74.41553 | 1114 ft | 6 kts | 166° |
| 2026-05-07 01:35 | 51.26624 | -74.41553 | 1112 ft | 4 kts | 236° |
| 2026-05-07 01:36 | 51.26628 | -74.41541 | 1114 ft | 5 kts | 294° |
| 2026-05-07 01:36 | 51.26625 | -74.41532 | 1117 ft | 5 kts | 337° |
| 2026-05-07 01:36 | 51.26616 | -74.41530 | 1113 ft | 9 kts | 50° |
| 2026-05-07 01:36 | 51.26612 | -74.41543 | 1114 ft | 8 kts | 124° |
| 2026-05-07 01:37 | 51.26619 | -74.41552 | 1116 ft | 5 kts | 198° |
| 2026-05-07 01:37 | 51.26626 | -74.41549 | 1116 ft | 6 kts | 252° |
| 2026-05-07 01:37 | 51.26628 | -74.41540 | 1117 ft | 4 kts | 291° |
| 2026-05-07 01:37 | 51.26624 | -74.41529 | 1115 ft | 5 kts | 353° |
| 2026-05-07 01:38 | 51.26614 | -74.41532 | 1113 ft | 8 kts | 72° |
| 2026-05-07 01:38 | 51.26614 | -74.41548 | 1116 ft | 6 kts | 152° |
| 2026-05-07 01:38 | 51.26621 | -74.41553 | 1116 ft | 5 kts | 205° |
| 2026-05-07 01:38 | 51.26627 | -74.41546 | 1116 ft | 4 kts | 259° |
| 2026-05-07 01:39 | 51.26628 | -74.41535 | 1117 ft | 5 kts | 309° |
| 2026-05-07 01:39 | 51.26624 | -74.41526 | 1116 ft | 7 kts | 1° |
| 2026-05-07 01:39 | 51.26614 | -74.41532 | 1116 ft | 7 kts | 82° |
| 2026-05-07 01:39 | 51.26616 | -74.41547 | 1116 ft | 7 kts | 165° |
| 2026-05-07 01:40 | 51.26623 | -74.41550 | 1112 ft | 5 kts | 210° |
| 2026-05-07 01:40 | 51.26628 | -74.41546 | 1116 ft | 3 kts | 246° |
| 2026-05-07 01:40 | 51.26630 | -74.41539 | 1113 ft | 6 kts | 283° |
| 2026-05-07 01:40 | 51.26628 | -74.41528 | 1115 ft | 5 kts | 336° |
| 2026-05-07 01:41 | 51.26621 | -74.41525 | 1115 ft | 8 kts | 34° |
| 2026-05-07 01:41 | 51.26615 | -74.41534 | 1115 ft | 8 kts | 98° |
| 2026-05-07 01:41 | 51.26616 | -74.41543 | 1115 ft | 7 kts | 142° |
| 2026-05-07 01:41 | 51.26622 | -74.41550 | 1117 ft | 6 kts | 196° |
| 2026-05-07 01:42 | 51.26629 | -74.41547 | 1114 ft | 5 kts | 243° |
| 2026-05-07 01:42 | 51.26631 | -74.41538 | 1114 ft | 6 kts | 284° |
| 2026-05-07 01:42 | 51.26629 | -74.41527 | 1117 ft | 5 kts | 335° |
| 2026-05-07 01:42 | 51.26620 | -74.41524 | 1117 ft | 8 kts | 44° |
| 2026-05-07 01:43 | 51.26615 | -74.41538 | 1116 ft | 5 kts | 122° |
| 2026-05-07 01:43 | 51.26621 | -74.41547 | 1115 ft | 7 kts | 188° |
| 2026-05-07 01:43 | 51.26628 | -74.41545 | 1116 ft | 5 kts | 237° |
| 2026-05-07 01:43 | 51.26631 | -74.41537 | 1116 ft | 5 kts | 281° |
| 2026-05-07 01:44 | 51.26630 | -74.41528 | 1114 ft | 7 kts | 316° |
| 2026-05-07 01:44 | 51.26625 | -74.41521 | 1115 ft | 8 kts | 10° |
| 2026-05-07 01:44 | 51.26618 | -74.41526 | 1116 ft | 9 kts | 68° |
| 2026-05-07 01:44 | 51.26616 | -74.41537 | 1116 ft | 6 kts | 128° |
| 2026-05-07 01:45 | 51.26620 | -74.41546 | 1113 ft | 6 kts | 180° |
| 2026-05-07 01:45 | 51.26626 | -74.41547 | 1112 ft | 5 kts | 227° |
| 2026-05-07 01:45 | 51.26630 | -74.41540 | 1116 ft | 5 kts | 264° |
| 2026-05-07 01:45 | 51.26630 | -74.41532 | 1117 ft | 5 kts | 301° |
| 2026-05-07 01:46 | 51.26628 | -74.41525 | 1113 ft | 7 kts | 340° |
| 2026-05-07 01:46 | 51.26620 | -74.41523 | 1113 ft | 8 kts | 41° |
| 2026-05-07 01:46 | 51.26615 | -74.41533 | 1115 ft | 7 kts | 105° |
| 2026-05-07 01:46 | 51.26617 | -74.41545 | 1113 ft | 7 kts | 165° |
| 2026-05-07 01:47 | 51.26623 | -74.41547 | 1117 ft | 6 kts | 210° |
| 2026-05-07 01:47 | 51.26629 | -74.41542 | 1113 ft | 5 kts | 254° |
| 2026-05-07 01:47 | 51.26630 | -74.41531 | 1117 ft | 6 kts | 303° |
| 2026-05-07 01:47 | 51.26626 | -74.41522 | 1115 ft | 7 kts | 353° |
| 2026-05-07 01:48 | 51.26617 | -74.41523 | 1117 ft | 8 kts | 59° |
| 2026-05-07 01:48 | 51.26615 | -74.41539 | 1114 ft | 7 kts | 135° |
| 2026-05-07 01:48 | 51.26620 | -74.41546 | 1113 ft | 6 kts | 187° |
| 2026-05-07 01:48 | 51.26626 | -74.41547 | 1115 ft | 5 kts | 226° |
| 2026-05-07 01:49 | 51.26629 | -74.41541 | 1113 ft | 4 kts | 258° |
| 2026-05-07 01:49 | 51.26630 | -74.41535 | 1116 ft | 4 kts | 288° |
| 2026-05-07 01:49 | 51.26627 | -74.41523 | 1116 ft | 7 kts | 348° |
| 2026-05-07 01:49 | 51.26618 | -74.41524 | 1114 ft | 8 kts | 59° |
| 2026-05-07 01:50 | 51.26614 | -74.41536 | 1114 ft | 7 kts | 120° |
| 2026-05-07 01:50 | 51.26620 | -74.41545 | 1114 ft | 7 kts | 177° |
| 2026-05-07 01:50 | 51.26627 | -74.41545 | 1117 ft | 6 kts | 231° |
| 2026-05-07 01:50 | 51.26631 | -74.41538 | 1113 ft | 7 kts | 274° |
| 2026-05-07 01:51 | 51.26630 | -74.41527 | 1113 ft | 6 kts | 319° |
| 2026-05-07 01:51 | 51.26622 | -74.41521 | 1116 ft | 7 kts | 25° |
| 2026-05-07 01:51 | 51.26615 | -74.41531 | 1116 ft | 7 kts | 96° |
| 2026-05-07 01:51 | 51.26617 | -74.41544 | 1113 ft | 7 kts | 166° |
| 2026-05-07 01:52 | 51.26624 | -74.41546 | 1116 ft | 5 kts | 215° |
| 2026-05-07 01:52 | 51.26629 | -74.41541 | 1114 ft | 4 kts | 255° |
| 2026-05-07 01:52 | 51.26631 | -74.41531 | 1117 ft | 6 kts | 302° |
| 2026-05-07 01:52 | 51.26629 | -74.41524 | 1113 ft | 6 kts | 339° |
| 2026-05-07 01:53 | 51.26621 | -74.41521 | 1113 ft | 8 kts | 41° |
| 2026-05-07 01:53 | 51.26615 | -74.41534 | 1113 ft | 8 kts | 119° |
| 2026-05-07 01:53 | 51.26620 | -74.41545 | 1115 ft | 6 kts | 178° |
| 2026-05-07 01:53 | 51.26626 | -74.41545 | 1116 ft | 6 kts | 225° |
| 2026-05-07 01:54 | 51.26630 | -74.41540 | 1114 ft | 5 kts | 264° |
| 2026-05-07 01:54 | 51.26632 | -74.41532 | 1115 ft | 5 kts | 298° |
| 2026-05-07 01:54 | 51.26630 | -74.41524 | 1114 ft | 6 kts | 336° |
| 2026-05-07 01:54 | 51.26622 | -74.41521 | 1117 ft | 8 kts | 35° |
| 2026-05-07 01:55 | 51.26616 | -74.41531 | 1115 ft | 7 kts | 99° |
| 2026-05-07 01:55 | 51.26620 | -74.41545 | 1117 ft | 6 kts | 177° |
| 2026-05-07 01:55 | 51.26627 | -74.41546 | 1117 ft | 5 kts | 225° |
| 2026-05-07 01:55 | 51.26630 | -74.41541 | 1114 ft | 5 kts | 258° |
| 2026-05-07 01:56 | 51.26631 | -74.41534 | 1116 ft | 4 kts | 293° |
| 2026-05-07 01:56 | 51.26627 | -74.41522 | 1113 ft | 7 kts | 352° |
| 2026-05-07 01:56 | 51.26619 | -74.41522 | 1115 ft | 8 kts | 50° |
| 2026-05-07 01:56 | 51.26615 | -74.41534 | 1114 ft | 7 kts | 113° |
| 2026-05-07 01:57 | 51.26629 | -74.41541 | 1115 ft | 5 kts | 254° |
| 2026-05-07 01:57 | 51.26631 | -74.41533 | 1113 ft | 5 kts | 296° |
| 2026-05-07 01:57 | 51.26630 | -74.41541 | 1117 ft | 5 kts | 260° |
| 2026-05-07 01:57 | 51.26618 | -74.41524 | 1114 ft | 8 kts | 61° |
| 2026-05-07 01:58 | 51.26624 | -74.41520 | 1116 ft | 8 kts | 11° |
| 2026-05-07 01:58 | 51.26622 | -74.41545 | 1115 ft | 5 kts | 194° |
| 2026-05-07 01:58 | 51.26629 | -74.41542 | 1116 ft | 3 kts | 244° |
| 2026-05-07 01:58 | 51.26631 | -74.41533 | 1116 ft | 5 kts | 292° |
| 2026-05-07 01:59 | 51.26629 | -74.41525 | 1116 ft | 6 kts | 335° |
| 2026-05-07 01:59 | 51.26622 | -74.41521 | 1113 ft | 8 kts | 24° |
| 2026-05-07 01:59 | 51.26615 | -74.41528 | 1113 ft | 8 kts | 85° |
| 2026-05-07 01:59 | 51.26616 | -74.41540 | 1114 ft | 7 kts | 142° |
| 2026-05-07 02:00 | 51.26621 | -74.41546 | 1115 ft | 6 kts | 191° |
| 2026-05-07 02:00 | 51.26627 | -74.41544 | 1114 ft | 6 kts | 234° |
| 2026-05-07 02:00 | 51.26631 | -74.41534 | 1114 ft | 5 kts | 288° |
| 2026-05-07 02:00 | 51.26629 | -74.41525 | 1116 ft | 6 kts | 332° |
| 2026-05-07 02:01 | 51.26621 | -74.41520 | 1113 ft | 7 kts | 27° |
| 2026-05-07 02:01 | 51.26615 | -74.41531 | 1116 ft | 7 kts | 104° |
| 2026-05-07 02:01 | 51.26617 | -74.41542 | 1115 ft | 5 kts | 160° |
| 2026-05-07 02:01 | 51.26623 | -74.41546 | 1113 ft | 6 kts | 203° |
| 2026-05-07 02:02 | 51.26629 | -74.41541 | 1116 ft | 4 kts | 252° |
| 2026-05-07 02:02 | 51.26631 | -74.41533 | 1115 ft | 5 kts | 295° |
| 2026-05-07 02:02 | 51.26627 | -74.41522 | 1112 ft | 6 kts | 349° |
| 2026-05-07 02:02 | 51.26618 | -74.41521 | 1117 ft | 9 kts | 57° |
| 2026-05-07 02:03 | 51.26615 | -74.41533 | 1116 ft | 7 kts | 119° |
| 2026-05-07 02:03 | 51.26619 | -74.41543 | 1116 ft | 4 kts | 178° |
| 2026-05-07 02:03 | 51.26624 | -74.41545 | 1116 ft | 6 kts | 214° |
| 2026-05-07 02:03 | 51.26629 | -74.41539 | 1115 ft | 6 kts | 261° |
| 2026-05-07 02:04 | 51.26630 | -74.41529 | 1117 ft | 6 kts | 312° |
| 2026-05-07 02:04 | 51.26625 | -74.41520 | 1114 ft | 7 kts | 3° |
| 2026-05-07 02:04 | 51.26616 | -74.41524 | 1115 ft | 9 kts | 69° |
| 2026-05-07 02:04 | 51.26615 | -74.41537 | 1113 ft | 6 kts | 132° |
| 2026-05-07 02:05 | 51.26621 | -74.41547 | 1115 ft | 5 kts | 192° |
| 2026-05-07 02:05 | 51.26628 | -74.41544 | 1116 ft | 4 kts | 239° |
| 2026-05-07 02:05 | 51.26630 | -74.41535 | 1115 ft | 4 kts | 278° |
| 2026-05-07 02:05 | 51.26629 | -74.41525 | 1116 ft | 6 kts | 328° |
| 2026-05-07 02:06 | 51.26620 | -74.41520 | 1115 ft | 9 kts | 33° |
| 2026-05-07 02:06 | 51.26614 | -74.41530 | 1116 ft | 8 kts | 97° |
| 2026-05-07 02:06 | 51.26615 | -74.41541 | 1116 ft | 7 kts | 148° |
| 2026-05-07 02:06 | 51.26623 | -74.41546 | 1114 ft | 6 kts | 206° |
| 2026-05-07 02:07 | 51.26629 | -74.41542 | 1114 ft | 5 kts | 254° |
| 2026-05-07 02:07 | 51.26629 | -74.41527 | 1113 ft | 5 kts | 326° |
| 2026-05-07 02:07 | 51.26621 | -74.41520 | 1115 ft | 8 kts | 33° |
| 2026-05-07 02:08 | 51.26615 | -74.41527 | 1115 ft | 8 kts | 86° |
| 2026-05-07 02:08 | 51.26614 | -74.41537 | 1116 ft | 7 kts | 131° |
| 2026-05-07 02:08 | 51.26619 | -74.41544 | 1115 ft | 5 kts | 172° |
| 2026-05-07 02:08 | 51.26625 | -74.41546 | 1113 ft | 5 kts | 225° |
| 2026-05-07 02:09 | 51.26629 | -74.41538 | 1114 ft | 5 kts | 269° |
| 2026-05-07 02:09 | 51.26628 | -74.41527 | 1115 ft | 6 kts | 324° |
| 2026-05-07 02:09 | 51.26622 | -74.41521 | 1115 ft | 8 kts | 17° |
| 2026-05-07 02:09 | 51.26614 | -74.41530 | 1115 ft | 6 kts | 94° |
| 2026-05-07 02:10 | 51.26617 | -74.41544 | 1115 ft | 6 kts | 164° |
| 2026-05-07 02:10 | 51.26625 | -74.41546 | 1116 ft | 5 kts | 221° |
| 2026-05-07 02:10 | 51.26629 | -74.41541 | 1115 ft | 4 kts | 256° |
| 2026-05-07 02:10 | 51.26631 | -74.41533 | 1113 ft | 6 kts | 296° |
| 2026-05-07 02:11 | 51.26625 | -74.41520 | 1117 ft | 8 kts | 10° |
| 2026-05-07 02:11 | 51.26617 | -74.41524 | 1117 ft | 8 kts | 70° |
| 2026-05-07 02:11 | 51.26615 | -74.41535 | 1115 ft | 7 kts | 122° |
| 2026-05-07 02:11 | 51.26619 | -74.41545 | 1114 ft | 6 kts | 172° |
| 2026-05-07 02:12 | 51.26625 | -74.41547 | 1114 ft | 5 kts | 213° |
| 2026-05-07 02:12 | 51.26630 | -74.41540 | 1115 ft | 5 kts | 261° |